Time;durP1;ratioP1;P1;durP2;ratioP2;P2;SDS_P1;SDS_P2;PMS_P1;PMS_P2;Temp;Humidity;BMP_temperature;BMP_pressure;BME280_temperature;BME280_humidity;BME280_pressure;Samples;Min_cycle;Max_cycle;Signal;HPM_P1;HPM_P2
2023/05/18 00:00:14;;;;;;;6.90;4.55;;;;;;;;;;5114819;28;20048;-83
2023/05/18 00:03:00;;;;;;;6.50;4.55;;;;;;;;;;5102471;28;20063;-82
2023/05/18 00:05:33;;;;;;;8.63;5.20;;;;;;;;;;5098890;28;20028;-82
2023/05/18 00:07:58;;;;;;;;;;;;;;;;;;5098373;28;20031;-83
2023/05/18 00:10:25;;;;;;;7.82;4.00;;;;;;;;;;5097839;28;19904;-83
2023/05/18 00:12:51;;;;;;;7.43;4.63;;;;;;;;;;5098813;28;20023;-82
2023/05/18 00:15:17;;;;;;;8.20;4.50;;;;;;;;;;5098769;28;20020;-82
2023/05/18 00:17:44;;;;;;;7.38;4.90;;;;;;;;;;5098891;28;20032;-82
2023/05/18 00:20:10;;;;;;;7.20;4.60;;;;;;;;;;5097170;28;20036;-83
2023/05/18 00:22:41;;;;;;;6.72;4.30;;;;;;;;;;5113990;28;20024;-82
2023/05/18 00:25:07;;;;;;;7.53;4.50;;;;;;;;;;5119418;28;20031;-81
2023/05/18 00:27:33;;;;;;;12.68;5.32;;;;;;;;;;5117723;28;20051;-83
2023/05/18 00:29:59;;;;;;;7.30;4.03;;;;;;;;;;5119248;28;20106;-83
2023/05/18 00:32:25;;;;;;;8.18;4.95;;;;;;;;;;5117565;28;20023;-83
2023/05/18 00:34:51;;;;;;;10.52;4.82;;;;;;;;;;5119104;28;20031;-83
2023/05/18 00:37:18;;;;;;;9.63;4.40;;;;;;;;;;5131278;27;20019;-83
2023/05/18 00:39:44;;;;;;;8.40;4.90;;;;;;;;;;5139449;27;20027;-83
2023/05/18 00:42:10;;;;;;;6.53;4.68;;;;;;;;;;5139507;27;20454;-83
2023/05/18 00:44:36;;;;;;;8.27;5.03;;;;;;;;;;5139094;27;20028;-83
2023/05/18 00:47:02;;;;;;;10.98;5.45;;;;;;;;;;5126405;27;20031;-82
2023/05/18 00:49:28;;;;;;;10.05;5.30;;;;;;;;;;5118323;28;20023;-83
2023/05/18 00:51:54;;;;;;;8.88;5.10;;;;;;;;;;5115796;28;20449;-82
2023/05/18 00:54:20;;;;;;;9.65;4.80;;;;;;;;;;5116527;28;20044;-83
2023/05/18 00:56:47;;;;;;;7.82;4.40;;;;;;;;;;5109108;28;20032;-83
2023/05/18 00:59:14;;;;;;;8.68;5.03;;;;;;;;;;5103271;28;20016;-83
2023/05/18 01:01:44;;;;;;;8.95;5.22;;;;;;;;;;5107789;28;20028;-83
2023/05/18 01:04:13;;;;;;;6.95;5.20;;;;;;;;;;5098105;28;20039;-82
2023/05/18 01:06:39;;;;;;;8.27;4.95;;;;;;;;;;5113494;28;20344;-83
2023/05/18 01:09:06;;;;;;;7.90;5.05;;;;;;;;;;5105980;28;20031;-82
2023/05/18 01:11:32;;;;;;;8.32;4.70;;;;;;;;;;5096738;28;20060;-82
2023/05/18 01:14:11;;;;;;;8.50;5.28;;;;;;;;;;5110761;28;20028;-82
2023/05/18 01:16:43;;;;;;;6.38;4.53;;;;;;;;;;5116423;28;20020;-82
2023/05/18 01:19:23;;;;;;;8.73;5.85;;;;;;;;;;5105252;28;20031;-82
2023/05/18 01:21:49;;;;;;;6.93;4.88;;;;;;;;;;5105442;28;20414;-82
2023/05/18 01:24:15;;;;;;;6.72;4.72;;;;;;;;;;5117044;28;20042;-83
2023/05/18 01:26:44;;;;;;;9.32;5.18;;;;;;;;;;5118233;28;20016;-83
2023/05/18 01:29:12;;;;;;;10.70;5.30;;;;;;;;;;5108615;27;20055;-83
2023/05/18 01:31:39;;;;;;;9.25;5.70;;;;;;;;;;5097541;28;20046;-82
2023/05/18 01:34:05;;;;;;;6.38;5.07;;;;;;;;;;5113261;28;20120;-82
2023/05/18 01:36:31;;;;;;;12.85;5.72;;;;;;;;;;5114631;28;20031;-83
2023/05/18 01:39:00;;;;;;;8.82;5.13;;;;;;;;;;5112972;28;20076;-83
2023/05/18 01:41:32;;;;;;;10.75;5.95;;;;;;;;;;5116251;28;20027;-83
2023/05/18 01:44:04;;;;;;;7.20;5.40;;;;;;;;;;5109520;28;20055;-82
2023/05/18 01:46:30;;;;;;;;;;;;;;;;;;5097724;28;20051;-82
2023/05/18 01:49:00;;;;;;;8.55;5.35;;;;;;;;;;5105327;28;20289;-84
2023/05/18 01:51:28;;;;;;;11.25;6.05;;;;;;;;;;5105429;28;20020;-83
2023/05/18 01:54:00;;;;;;;9.23;6.43;;;;;;;;;;5108273;28;20147;-83
2023/05/18 01:56:27;;;;;;;8.02;5.82;;;;;;;;;;5097335;28;20028;-82
2023/05/18 01:58:53;;;;;;;9.23;5.60;;;;;;;;;;5097367;28;20047;-82
2023/05/18 02:01:21;;;;;;;8.50;6.18;;;;;;;;;;5110003;28;20038;-82
2023/05/18 02:03:47;;;;;;;7.13;6.07;;;;;;;;;;5101465;28;20070;-83
2023/05/18 02:06:13;;;;;;;7.88;5.75;;;;;;;;;;5101680;28;20055;-82
2023/05/18 02:08:39;;;;;;;12.02;5.80;;;;;;;;;;5101357;28;20043;-83
2023/05/18 02:11:05;;;;;;;10.32;6.10;;;;;;;;;;5101492;28;20099;-82
2023/05/18 02:13:31;;;;;;;7.30;5.55;;;;;;;;;;5120585;28;20030;-82
2023/05/18 02:15:57;;;;;;;9.88;6.32;;;;;;;;;;5120322;28;20031;-82
2023/05/18 02:18:25;;;;;;;8.10;5.80;;;;;;;;;;5126527;27;20103;-81
2023/05/18 02:20:57;;;;;;;15.20;9.88;;;;;;;;;;5142306;27;20019;-82
2023/05/18 02:23:24;;;;;;;8.07;6.35;;;;;;;;;;5140714;27;20034;-81
2023/05/18 02:25:50;;;;;;;10.82;6.30;;;;;;;;;;5141582;27;20031;-81
2023/05/18 02:28:16;;;;;;;12.57;7.05;;;;;;;;;;5142056;27;20016;-81
2023/05/18 02:30:42;;;;;;;14.20;12.80;;;;;;;;;;5141950;27;20088;-81
2023/05/18 02:33:09;;;;;;;11.82;9.55;;;;;;;;;;5118942;27;20412;-81
2023/05/18 02:35:35;;;;;;;19.52;17.63;;;;;;;;;;5120972;28;20027;-81
2023/05/18 02:38:03;;;;;;;14.85;13.35;;;;;;;;;;5121179;28;20027;-81
2023/05/18 02:40:29;;;;;;;9.27;6.93;;;;;;;;;;5108269;28;20047;-82
2023/05/18 02:42:55;;;;;;;10.43;7.20;;;;;;;;;;5099312;28;20078;-81
2023/05/18 02:45:21;;;;;;;12.90;9.57;;;;;;;;;;5100532;28;20027;-81
2023/05/18 02:47:47;;;;;;;11.68;7.07;;;;;;;;;;5106916;28;20023;-82
2023/05/18 02:50:14;;;;;;;8.90;7.72;;;;;;;;;;5120328;28;20038;-82
2023/05/18 02:52:40;;;;;;;10.60;9.38;;;;;;;;;;5117731;28;20019;-82
2023/05/18 02:55:06;;;;;;;7.88;6.72;;;;;;;;;;5117487;28;20046;-82
2023/05/18 02:57:32;;;;;;;11.65;9.23;;;;;;;;;;5112826;28;20016;-83
2023/05/18 02:59:59;;;;;;;14.23;9.25;;;;;;;;;;5099907;28;20383;-83
2023/05/18 03:02:26;;;;;;;12.35;7.57;;;;;;;;;;5117824;28;20047;-83
2023/05/18 03:04:56;;;;;;;9.15;6.20;;;;;;;;;;5120484;28;20039;-83
2023/05/18 03:07:26;;;;;;;10.73;7.68;;;;;;;;;;5114356;28;20031;-83
2023/05/18 03:09:52;;;;;;;14.50;8.77;;;;;;;;;;5120041;28;20038;-83
2023/05/18 03:12:18;;;;;;;10.43;7.20;;;;;;;;;;5099775;28;20028;-83
2023/05/18 03:14:44;;;;;;;12.20;9.65;;;;;;;;;;5117568;28;20105;-82
2023/05/18 03:17:10;;;;;;;12.15;6.60;;;;;;;;;;5101857;28;20295;-82
2023/05/18 03:19:36;;;;;;;11.52;7.40;;;;;;;;;;5100969;28;20070;-81
2023/05/18 03:22:03;;;;;;;13.02;8.18;;;;;;;;;;5110482;28;20052;-81
2023/05/18 03:24:38;;;;;;;12.25;8.60;;;;;;;;;;5099857;28;20123;-82
2023/05/18 03:27:05;;;;;;;11.07;6.93;;;;;;;;;;5100375;28;20024;-82
2023/05/18 03:29:31;;;;;;;8.98;6.78;;;;;;;;;;5101382;28;20061;-82
2023/05/18 03:31:57;;;;;;;9.20;6.22;;;;;;;;;;5107653;28;20032;-82
2023/05/18 03:34:24;;;;;;;9.88;7.07;;;;;;;;;;5113404;28;20602;-82
2023/05/18 03:36:51;;;;;;;12.13;7.20;;;;;;;;;;5103358;28;20019;-81
2023/05/18 03:39:17;;;;;;;13.68;8.90;;;;;;;;;;5110788;28;20432;-81
2023/05/18 03:41:43;;;;;;;12.85;8.88;;;;;;;;;;5118778;28;20031;-81
2023/05/18 03:44:09;;;;;;;9.75;7.40;;;;;;;;;;5101308;28;20307;-82
2023/05/18 03:46:35;;;;;;;10.02;6.50;;;;;;;;;;5101154;28;20448;-81
2023/05/18 03:49:03;;;;;;;9.55;6.63;;;;;;;;;;5099809;28;20024;-80
2023/05/18 03:51:30;;;;;;;9.70;7.28;;;;;;;;;;5119682;28;20031;-81
2023/05/18 03:53:56;;;;;;;8.82;7.10;;;;;;;;;;5111078;28;20176;-81
2023/05/18 03:56:22;;;;;;;9.10;6.40;;;;;;;;;;5118504;28;20027;-81
2023/05/18 03:58:50;;;;;;;10.05;7.35;;;;;;;;;;5119706;28;20020;-82
2023/05/18 04:01:17;;;;;;;7.38;6.50;;;;;;;;;;5117959;28;20038;-82
2023/05/18 04:03:44;;;;;;;11.13;6.30;;;;;;;;;;5119485;27;20441;-82
2023/05/18 04:06:10;;;;;;;8.88;6.78;;;;;;;;;;5139975;27;20369;-82
2023/05/18 04:08:36;;;;;;;9.73;6.53;;;;;;;;;;5136960;27;20027;-81
2023/05/18 04:11:03;;;;;;;10.43;7.10;;;;;;;;;;5098997;28;20070;-82
2023/05/18 04:13:29;;;;;;;8.15;6.05;;;;;;;;;;5099228;28;20140;-82
2023/05/18 04:15:57;;;;;;;9.70;7.00;;;;;;;;;;5098475;28;20333;-82
2023/05/18 04:18:23;;;;;;;10.40;6.97;;;;;;;;;;5098596;28;20414;-81
2023/05/18 04:20:49;;;;;;;8.95;6.68;;;;;;;;;;5097658;28;20087;-83
2023/05/18 04:23:15;;;;;;;8.57;6.57;;;;;;;;;;5096691;28;20123;-82
2023/05/18 04:25:42;;;;;;;8.27;6.75;;;;;;;;;;5098702;28;20020;-83
2023/05/18 04:28:08;;;;;;;9.02;6.43;;;;;;;;;;5098974;28;20131;-83
2023/05/18 04:30:36;;;;;;;8.60;6.78;;;;;;;;;;5118908;28;20068;-82
2023/05/18 04:36:06;;;;;;;10.57;7.45;;;;;;;;;;5119057;28;20062;-82
2023/05/18 04:38:35;;;;;;;9.43;6.40;;;;;;;;;;5117875;28;20061;-83
2023/05/18 04:41:05;;;;;;;8.20;6.65;;;;;;;;;;5100201;28;20081;-82
2023/05/18 04:43:31;;;;;;;8.90;6.50;;;;;;;;;;5098650;28;20028;-83
2023/05/18 04:45:57;;;;;;;10.27;6.40;;;;;;;;;;5097162;28;20028;-82
2023/05/18 04:48:24;;;;;;;11.90;6.90;;;;;;;;;;5097069;28;20028;-82
2023/05/18 04:50:53;;;;;;;11.18;6.57;;;;;;;;;;5098516;28;20039;-83
2023/05/18 04:53:20;;;;;;;13.18;7.60;;;;;;;;;;5098159;28;20024;-83
2023/05/18 04:55:48;;;;;;;8.80;6.97;;;;;;;;;;5098256;28;20024;-82
2023/05/18 04:58:15;;;;;;;13.45;7.45;;;;;;;;;;5097779;28;20028;-81
2023/05/18 05:00:41;;;;;;;10.10;6.93;;;;;;;;;;5097953;28;20081;-81
2023/05/18 05:03:08;;;;;;;7.75;6.28;;;;;;;;;;5097593;28;20074;-81
2023/05/18 05:05:34;;;;;;;10.70;6.95;;;;;;;;;;5097350;28;20030;-81
2023/05/18 05:08:00;;;;;;;9.45;6.85;;;;;;;;;;5097109;28;20115;-81
2023/05/18 05:10:27;;;;;;;9.52;6.63;;;;;;;;;;5096668;28;20065;-81
2023/05/18 05:12:53;;;;;;;7.70;6.13;;;;;;;;;;5133324;27;20034;-81
2023/05/18 05:15:20;;;;;;;8.68;6.00;;;;;;;;;;5138716;27;20075;-81
2023/05/18 05:17:46;;;;;;;9.43;6.30;;;;;;;;;;5137422;27;20069;-81
2023/05/18 05:20:12;;;;;;;7.85;6.05;;;;;;;;;;5137541;27;20050;-81
2023/05/18 05:22:38;;;;;;;7.10;6.05;;;;;;;;;;5136933;27;20035;-81
2023/05/18 05:25:06;;;;;;;9.93;6.68;;;;;;;;;;5138208;27;20371;-80
2023/05/18 05:27:32;;;;;;;8.23;6.45;;;;;;;;;;5127173;27;20020;-80
2023/05/18 05:29:58;;;;;;;7.85;6.60;;;;;;;;;;5117623;28;20020;-81
2023/05/18 05:32:24;;;;;;;7.57;6.40;;;;;;;;;;5117656;28;20023;-80
2023/05/18 05:34:50;;;;;;;8.93;6.07;;;;;;;;;;5117338;28;20024;-80
2023/05/18 05:37:17;;;;;;;8.45;6.25;;;;;;;;;;5111671;28;20100;-82
2023/05/18 05:39:43;;;;;;;8.13;5.90;;;;;;;;;;5117403;28;20316;-80
2023/05/18 05:42:09;;;;;;;10.82;6.82;;;;;;;;;;5115881;28;20027;-81
2023/05/18 05:44:36;;;;;;;11.07;6.45;;;;;;;;;;5116567;28;20325;-82
2023/05/18 05:47:02;;;;;;;10.35;6.78;;;;;;;;;;5098382;28;20070;-81
2023/05/18 05:49:28;;;;;;;8.77;6.45;;;;;;;;;;5105005;28;20027;-81
2023/05/18 05:51:54;;;;;;;8.23;6.03;;;;;;;;;;5112742;28;20027;-81
2023/05/18 05:54:20;;;;;;;9.05;5.40;;;;;;;;;;5117112;28;20100;-82
2023/05/18 05:56:48;;;;;;;6.47;5.85;;;;;;;;;;5117211;28;20353;-83
2023/05/18 05:59:14;;;;;;;7.10;5.60;;;;;;;;;;5117850;28;20031;-82
2023/05/18 06:01:41;;;;;;;7.45;5.47;;;;;;;;;;5117922;28;20344;-81
2023/05/18 06:04:09;;;;;;;7.25;5.53;;;;;;;;;;5117179;28;20044;-82
2023/05/18 06:06:37;;;;;;;7.93;5.63;;;;;;;;;;5116422;28;20016;-81
2023/05/18 06:09:03;;;;;;;9.27;6.65;;;;;;;;;;5115898;28;20114;-81
2023/05/18 06:11:30;;;;;;;15.23;7.47;;;;;;;;;;5116068;28;20032;-81
2023/05/18 06:13:56;;;;;;;8.70;6.57;;;;;;;;;;5116436;28;20026;-82
2023/05/18 06:16:24;;;;;;;6.93;5.80;;;;;;;;;;5113828;28;20015;-91
2023/05/18 06:18:51;;;;;;;9.02;6.80;;;;;;;;;;5119357;28;20046;-96
2023/05/18 06:21:17;;;;;;;9.13;6.32;;;;;;;;;;5117402;28;20032;-94
2023/05/18 06:23:44;;;;;;;8.93;7.10;;;;;;;;;;5106112;28;20020;-95
2023/05/18 06:26:11;;;;;;;8.55;6.88;;;;;;;;;;5118771;28;20016;-92
2023/05/18 06:28:37;;;;;;;11.00;7.10;;;;;;;;;;5117367;28;20057;-90
2023/05/18 06:31:04;;;;;;;10.73;6.53;;;;;;;;;;5116863;28;20028;-91
2023/05/18 06:34:07;;;;;;;9.00;6.10;;;;;;;;;;5116873;28;20474;-89
2023/05/18 06:36:33;;;;;;;9.70;5.90;;;;;;;;;;5116584;28;20032;-92
2023/05/18 06:38:59;;;;;;;6.72;5.55;;;;;;;;;;5102473;28;20032;-93
2023/05/18 06:41:25;;;;;;;7.78;5.25;;;;;;;;;;5097451;28;20100;-92
2023/05/18 06:43:51;;;;;;;9.15;6.00;;;;;;;;;;5097154;28;20024;-91
2023/05/18 06:46:23;;;;;;;6.82;5.30;;;;;;;;;;5097342;28;20205;-91
2023/05/18 06:48:50;;;;;;;8.57;6.18;;;;;;;;;;5100657;28;20450;-91
2023/05/18 06:51:16;;;;;;;7.68;5.72;;;;;;;;;;5108764;28;20041;-91
2023/05/18 06:53:42;;;;;;;6.97;5.25;;;;;;;;;;5121170;28;20048;-91
2023/05/18 06:56:11;;;;;;;10.07;6.93;;;;;;;;;;5120511;28;20321;-90
2023/05/18 06:58:37;;;;;;;16.98;9.98;;;;;;;;;;5121195;28;20030;-90
2023/05/18 07:01:04;;;;;;;14.85;9.50;;;;;;;;;;5121054;28;20027;-92
2023/05/18 07:03:31;;;;;;;12.65;9.65;;;;;;;;;;5120961;28;20020;-77
2023/05/18 07:05:57;;;;;;;13.43;9.23;;;;;;;;;;5120207;28;20031;-78
2023/05/18 07:08:24;;;;;;;12.55;9.55;;;;;;;;;;5118515;28;20068;-78
2023/05/18 07:10:50;;;;;;;15.20;9.45;;;;;;;;;;5119066;28;20023;-78
2023/05/18 07:13:16;;;;;;;11.38;8.25;;;;;;;;;;5119705;28;20023;-78
2023/05/18 07:15:42;;;;;;;7.93;6.40;;;;;;;;;;5120024;28;20024;-78
2023/05/18 07:18:08;;;;;;;12.50;8.50;;;;;;;;;;5119855;28;20028;-78
2023/05/18 07:20:34;;;;;;;14.05;10.00;;;;;;;;;;5123260;27;20106;-78
2023/05/18 07:23:01;;;;;;;11.80;9.20;;;;;;;;;;5140729;27;20031;-81
2023/05/18 07:25:27;;;;;;;12.80;10.30;;;;;;;;;;5140636;27;20110;-78
2023/05/18 07:27:53;;;;;;;11.77;9.07;;;;;;;;;;5140121;27;20026;-78
2023/05/18 07:30:20;;;;;;;11.55;9.18;;;;;;;;;;5139228;27;20019;-78
2023/05/18 07:32:46;;;;;;;17.42;12.05;;;;;;;;;;5139289;27;20435;-78
2023/05/18 07:35:12;;;;;;;16.38;10.45;;;;;;;;;;5139461;27;20108;-78
2023/05/18 07:37:38;;;;;;;17.27;11.68;;;;;;;;;;5139366;27;20031;-78
2023/05/18 07:40:05;;;;;;;17.13;10.75;;;;;;;;;;5140318;27;20409;-78
2023/05/18 07:42:32;;;;;;;14.77;9.27;;;;;;;;;;5140287;27;20397;-79
2023/05/18 07:44:58;;;;;;;8.70;6.85;;;;;;;;;;5140371;27;20015;-78
2023/05/18 07:47:25;;;;;;;10.65;7.75;;;;;;;;;;5139821;27;20088;-78
2023/05/18 07:49:51;;;;;;;14.45;10.15;;;;;;;;;;5138664;27;20039;-78
2023/05/18 07:52:17;;;;;;;12.93;8.63;;;;;;;;;;5140304;27;20035;-78
2023/05/18 07:54:43;;;;;;;10.98;7.55;;;;;;;;;;5139926;27;20050;-78
2023/05/18 07:57:09;;;;;;;7.85;5.97;;;;;;;;;;5140032;27;20355;-78
2023/05/18 07:59:35;;;;;;;7.47;6.20;;;;;;;;;;5139951;27;20023;-79
2023/05/18 08:02:01;;;;;;;11.88;6.97;;;;;;;;;;5139906;27;20027;-78
2023/05/18 08:04:28;;;;;;;8.85;7.05;;;;;;;;;;5139660;27;20030;-78
2023/05/18 08:06:54;;;;;;;6.55;5.90;;;;;;;;;;5139929;27;20209;-78
2023/05/18 08:09:21;;;;;;;13.05;9.30;;;;;;;;;;5139932;27;20064;-78
2023/05/18 08:11:49;;;;;;;8.77;7.55;;;;;;;;;;5138886;27;20027;-83
2023/05/18 08:14:16;;;;;;;10.75;9.43;;;;;;;;;;5140605;27;20054;-92
2023/05/18 08:16:42;;;;;;;13.02;11.05;;;;;;;;;;5140689;27;20137;-92
2023/05/18 08:19:08;;;;;;;11.85;7.82;;;;;;;;;;5140551;27;20391;-93
2023/05/18 08:21:34;;;;;;;7.93;6.43;;;;;;;;;;5140172;27;20031;-92
2023/05/18 08:24:01;;;;;;;9.43;7.47;;;;;;;;;;5140029;27;20118;-92
2023/05/18 08:26:27;;;;;;;8.38;6.20;;;;;;;;;;5139490;27;20027;-90
2023/05/18 08:28:54;;;;;;;6.93;5.00;;;;;;;;;;5140242;27;20022;-90
2023/05/18 08:31:21;;;;;;;7.82;6.30;;;;;;;;;;5140459;27;20424;-91
2023/05/18 08:33:47;;;;;;;5.47;4.43;;;;;;;;;;5141054;27;20034;-85
2023/05/18 08:36:13;;;;;;;8.15;6.00;;;;;;;;;;5139099;27;20045;-92
2023/05/18 08:38:39;;;;;;;8.48;6.85;;;;;;;;;;5138768;27;20031;-92
2023/05/18 08:41:22;;;;;;;9.75;7.10;;;;;;;;;;5139799;27;20061;-93
2023/05/18 08:43:52;;;;;;;6.18;4.88;;;;;;;;;;5138532;27;20031;-91
2023/05/18 08:46:23;;;;;;;5.97;4.80;;;;;;;;;;5139772;27;20050;-92
2023/05/18 08:48:52;;;;;;;9.27;5.38;;;;;;;;;;5138743;27;20020;-93
2023/05/18 08:51:19;;;;;;;5.03;3.97;;;;;;;;;;5139704;27;20027;-93
2023/05/18 08:53:50;;;;;;;5.97;4.55;;;;;;;;;;5139493;27;20039;-92
2023/05/18 08:56:16;;;;;;;7.22;5.80;;;;;;;;;;5138668;27;20351;-91
2023/05/18 08:58:44;;;;;;;5.03;4.53;;;;;;;;;;5139887;27;20027;-93
2023/05/18 09:01:11;;;;;;;6.07;3.40;;;;;;;;;;5140145;27;20030;-86
2023/05/18 09:03:38;;;;;;;4.80;3.10;;;;;;;;;;5126749;27;20047;-83
2023/05/18 09:06:06;;;;;;;3.10;2.80;;;;;;;;;;5117747;28;20118;-82
2023/05/18 09:08:32;;;;;;;3.28;2.92;;;;;;;;;;5118301;28;20031;-83
2023/05/18 09:10:59;;;;;;;3.05;2.75;;;;;;;;;;5116375;28;20027;-85
2023/05/18 09:13:25;;;;;;;4.47;3.78;;;;;;;;;;5118002;28;20023;-85
2023/05/18 09:15:52;;;;;;;4.32;3.50;;;;;;;;;;5118795;28;20028;-86
2023/05/18 09:18:18;;;;;;;3.75;3.35;;;;;;;;;;5117167;28;20019;-84
2023/05/18 09:20:44;;;;;;;6.18;4.63;;;;;;;;;;5118684;28;20040;-83
2023/05/18 09:23:13;;;;;;;13.82;9.35;;;;;;;;;;5117564;28;20049;-87
2023/05/18 09:25:44;;;;;;;6.63;4.90;;;;;;;;;;5117033;28;20031;-85
2023/05/18 09:28:13;;;;;;;4.45;3.75;;;;;;;;;;5118660;28;20096;-85
2023/05/18 09:30:42;;;;;;;6.15;3.70;;;;;;;;;;5116686;28;20504;-83
2023/05/18 09:36:14;;;;;;;5.60;4.72;;;;;;;;;;5113937;28;20085;-85
2023/05/18 09:38:45;;;;;;;4.70;4.15;;;;;;;;;;5123077;28;20463;-93
2023/05/18 09:41:17;;;;;;;6.10;4.30;;;;;;;;;;5117134;28;20034;-90
2023/05/18 09:43:44;;;;;;;4.93;3.88;;;;;;;;;;5116144;28;20028;-84
2023/05/18 09:46:10;;;;;;;5.40;3.65;;;;;;;;;;5114027;28;20336;-83
2023/05/18 09:48:38;;;;;;;4.20;3.63;;;;;;;;;;5108365;28;20035;-84
2023/05/18 09:51:05;;;;;;;3.90;3.50;;;;;;;;;;5115303;28;20024;-85
2023/05/18 09:53:34;;;;;;;4.00;3.60;;;;;;;;;;5115363;28;20030;-84
2023/05/18 09:56:04;;;;;;;3.85;3.25;;;;;;;;;;5115054;28;20074;-84
2023/05/18 09:58:33;;;;;;;4.63;3.25;;;;;;;;;;5116148;28;20020;-84
2023/05/18 10:01:00;;;;;;;4.32;3.92;;;;;;;;;;5098076;28;20028;-84
2023/05/18 10:04:03;;;;;;;4.57;4.18;;;;;;;;;;5104723;28;20040;-83
2023/05/18 10:06:30;;;;;;;7.47;5.78;;;;;;;;;;5115866;28;20326;-82
2023/05/18 10:08:58;;;;;;;8.35;4.82;;;;;;;;;;5107376;28;20019;-83
2023/05/18 10:11:26;;;;;;;7.70;5.40;;;;;;;;;;5117869;28;20020;-84
2023/05/18 10:13:55;;;;;;;5.57;3.30;;;;;;;;;;5118053;28;20024;-84
2023/05/18 10:16:24;;;;;;;3.53;3.10;;;;;;;;;;5116629;28;20055;-83
2023/05/18 10:18:52;;;;;;;3.60;3.10;;;;;;;;;;5116404;28;20414;-84
2023/05/18 10:21:18;;;;;;;3.13;2.83;;;;;;;;;;5119412;28;20031;-84
2023/05/18 10:23:45;;;;;;;4.38;3.20;;;;;;;;;;5121847;28;20031;-83
2023/05/18 10:26:12;;;;;;;3.55;2.70;;;;;;;;;;5121562;28;20406;-84
2023/05/18 10:28:41;;;;;;;3.50;3.10;;;;;;;;;;5121591;28;20393;-84
2023/05/18 10:31:07;;;;;;;3.75;3.13;;;;;;;;;;5120508;28;20024;-83
2023/05/18 10:33:35;;;;;;;5.03;2.97;;;;;;;;;;5120182;28;20039;-83
2023/05/18 10:36:02;;;;;;;3.20;2.90;;;;;;;;;;5120195;28;20333;-83
2023/05/18 10:38:28;;;;;;;3.78;3.05;;;;;;;;;;5120314;28;20415;-83
2023/05/18 10:40:55;;;;;;;5.13;2.97;;;;;;;;;;5119799;28;20035;-83
2023/05/18 10:43:28;;;;;;;3.00;2.63;;;;;;;;;;5121174;28;20024;-83
2023/05/18 10:45:55;;;;;;;3.60;2.55;;;;;;;;;;5121316;28;20054;-83
2023/05/18 10:48:22;;;;;;;6.93;3.35;;;;;;;;;;5121385;28;20405;-81
2023/05/18 10:50:49;;;;;;;3.08;2.53;;;;;;;;;;5121199;28;20020;-84
2023/05/18 10:53:19;;;;;;;6.88;3.50;;;;;;;;;;5121060;28;20065;-83
2023/05/18 10:55:46;;;;;;;4.72;3.30;;;;;;;;;;5120300;28;20039;-83
2023/05/18 10:58:14;;;;;;;3.85;3.20;;;;;;;;;;5121088;28;20027;-84
2023/05/18 11:00:42;;;;;;;5.53;3.90;;;;;;;;;;5121192;28;20032;-84
2023/05/18 11:03:12;;;;;;;4.05;3.17;;;;;;;;;;5119513;28;20456;-84
2023/05/18 11:05:39;;;;;;;4.55;3.00;;;;;;;;;;5120621;28;20026;-84
2023/05/18 11:08:05;;;;;;;3.00;2.70;;;;;;;;;;5120869;28;20459;-84
2023/05/18 11:10:38;;;;;;;3.20;2.90;;;;;;;;;;5120747;28;20023;-85
2023/05/18 11:13:06;;;;;;;3.10;2.80;;;;;;;;;;5120601;28;20483;-83
2023/05/18 11:15:50;;;;;;;3.25;2.83;;;;;;;;;;5119607;28;20032;-83
2023/05/18 11:18:16;;;;;;;3.10;2.75;;;;;;;;;;5120588;28;20468;-83
2023/05/18 11:20:45;;;;;;;7.47;3.70;;;;;;;;;;5120581;28;20039;-83
2023/05/18 11:23:17;;;;;;;4.00;3.55;;;;;;;;;;5119366;28;20020;-83
2023/05/18 11:25:43;;;;;;;;;;;;;;;;;;5120772;28;20418;-83
2023/05/18 11:28:12;;;;;;;3.20;2.90;;;;;;;;;;5120308;28;19910;-84
2023/05/18 11:30:40;;;;;;;4.35;2.85;;;;;;;;;;5120288;28;20480;-84
2023/05/18 11:33:14;;;;;;;5.15;3.20;;;;;;;;;;5118678;28;20027;-83
2023/05/18 11:35:56;;;;;;;5.47;3.40;;;;;;;;;;5120091;28;20104;-82
2023/05/18 11:38:22;;;;;;;3.35;3.05;;;;;;;;;;5120324;28;20039;-83
2023/05/18 11:40:49;;;;;;;4.10;3.10;;;;;;;;;;5119940;28;20020;-83
2023/05/18 11:43:22;;;;;;;3.10;2.80;;;;;;;;;;5119059;28;20443;-83
2023/05/18 11:45:52;;;;;;;4.28;3.70;;;;;;;;;;5118860;28;20024;-83
2023/05/18 11:48:19;;;;;;;3.97;3.40;;;;;;;;;;5118853;28;20047;-83
2023/05/18 11:50:46;;;;;;;3.10;2.80;;;;;;;;;;5119689;28;20490;-83
2023/05/18 11:53:16;;;;;;;3.42;2.70;;;;;;;;;;5118221;28;20034;-84
2023/05/18 11:55:42;;;;;;;4.78;3.38;;;;;;;;;;5118755;28;20043;-83
2023/05/18 11:58:09;;;;;;;3.55;3.00;;;;;;;;;;5119759;28;20031;-83
2023/05/18 12:00:36;;;;;;;4.25;2.90;;;;;;;;;;5119816;28;20035;-83
2023/05/18 12:03:02;;;;;;;3.67;3.20;;;;;;;;;;5118551;28;20028;-83
2023/05/18 12:05:31;;;;;;;3.85;3.42;;;;;;;;;;5119325;28;20057;-83
2023/05/18 12:07:58;;;;;;;6.28;3.50;;;;;;;;;;5119770;28;20032;-83
2023/05/18 12:10:24;;;;;;;4.97;3.20;;;;;;;;;;5119581;28;20027;-83
2023/05/18 12:12:51;;;;;;;3.97;3.58;;;;;;;;;;5119609;28;20426;-83
2023/05/18 12:15:21;;;;;;;5.70;3.75;;;;;;;;;;5119353;28;20019;-83
2023/05/18 12:17:48;;;;;;;6.20;4.10;;;;;;;;;;5119353;28;20337;-84
2023/05/18 12:20:21;;;;;;;10.85;4.88;;;;;;;;;;5118961;28;20027;-83
2023/05/18 12:22:51;;;;;;;6.63;4.22;;;;;;;;;;5119617;28;20418;-74
2023/05/18 12:25:18;;;;;;;4.85;4.05;;;;;;;;;;5102700;28;20028;-76
2023/05/18 12:27:46;;;;;;;9.38;5.10;;;;;;;;;;5110789;28;20028;-76
2023/05/18 12:30:16;;;;;;;6.30;4.95;;;;;;;;;;5119132;28;20027;-76
2023/05/18 12:32:46;;;;;;;5.15;4.07;;;;;;;;;;5116900;28;20036;-76
2023/05/18 12:35:13;;;;;;;6.60;4.55;;;;;;;;;;5102354;28;20143;-76
2023/05/18 12:37:45;;;;;;;6.55;5.20;;;;;;;;;;5115785;28;20027;-76
2023/05/18 12:40:13;;;;;;;7.32;5.50;;;;;;;;;;5112252;28;20020;-76
2023/05/18 12:42:39;;;;;;;6.53;5.03;;;;;;;;;;5098205;28;20077;-75
2023/05/18 12:45:05;;;;;;;5.38;3.67;;;;;;;;;;5097252;28;20028;-76
2023/05/18 12:47:32;;;;;;;7.20;3.80;;;;;;;;;;5097743;28;20051;-76
2023/05/18 12:50:01;;;;;;;3.13;2.83;;;;;;;;;;5097971;28;20031;-75
2023/05/18 12:52:27;;;;;;;5.53;3.67;;;;;;;;;;5098062;28;20032;-75
2023/05/18 12:54:58;;;;;;;3.70;3.40;;;;;;;;;;5097919;28;20052;-75
2023/05/18 12:57:25;;;;;;;4.10;3.70;;;;;;;;;;5098082;28;20103;-75
2023/05/18 12:59:52;;;;;;;3.80;3.40;;;;;;;;;;5098057;28;20048;-76
2023/05/18 13:02:29;;;;;;;4.47;3.45;;;;;;;;;;5098165;28;20031;-76
2023/05/18 13:05:06;;;;;;;3.70;3.40;;;;;;;;;;5097964;28;20405;-76
2023/05/18 13:07:33;;;;;;;3.47;3.17;;;;;;;;;;5097915;28;20024;-76
2023/05/18 13:10:06;;;;;;;4.28;3.30;;;;;;;;;;5097810;28;20027;-76
2023/05/18 13:12:39;;;;;;;4.38;3.75;;;;;;;;;;5096686;28;20034;-76
2023/05/18 13:15:13;;;;;;;6.13;4.22;;;;;;;;;;5097667;28;20105;-75
2023/05/18 13:17:47;;;;;;;7.93;5.72;;;;;;;;;;5097602;28;20110;-76
2023/05/18 13:20:14;;;;;;;8.32;5.10;;;;;;;;;;5097837;28;20031;-76
2023/05/18 13:22:40;;;;;;;4.82;4.03;;;;;;;;;;5097579;28;20099;-76
2023/05/18 13:25:06;;;;;;;6.40;5.07;;;;;;;;;;5096232;28;20051;-76
2023/05/18 13:27:32;;;;;;;7.53;5.15;;;;;;;;;;5099593;28;20117;-87
2023/05/18 13:29:59;;;;;;;6.25;4.88;;;;;;;;;;5098830;28;20024;-82
2023/05/18 13:32:25;;;;;;;5.38;4.32;;;;;;;;;;5097619;28;20073;-82
2023/05/18 13:34:54;;;;;;;5.10;4.60;;;;;;;;;;5107447;28;20119;-84
2023/05/18 13:37:20;;;;;;;4.70;4.30;;;;;;;;;;5105826;28;20309;-84
2023/05/18 13:39:46;;;;;;;4.05;3.53;;;;;;;;;;5138397;27;20037;-83
2023/05/18 13:42:13;;;;;;;4.57;3.65;;;;;;;;;;5138742;27;20027;-84
2023/05/18 13:44:39;;;;;;;5.22;4.07;;;;;;;;;;5138658;27;20080;-84
2023/05/18 13:47:05;;;;;;;3.63;3.13;;;;;;;;;;5138299;27;20031;-84
2023/05/18 13:49:31;;;;;;;3.45;3.00;;;;;;;;;;5129997;27;20397;-83
2023/05/18 13:51:59;;;;;;;4.38;3.83;;;;;;;;;;5116557;28;20112;-83
2023/05/18 13:54:25;;;;;;;5.78;3.28;;;;;;;;;;5117390;28;20058;-84
2023/05/18 13:56:51;;;;;;;5.88;3.80;;;;;;;;;;5117412;28;20473;-83
2023/05/18 13:59:18;;;;;;;4.45;3.28;;;;;;;;;;5117843;28;20050;-84
2023/05/18 14:01:46;;;;;;;4.95;3.65;;;;;;;;;;5116824;28;20030;-83
2023/05/18 14:04:12;;;;;;;4.30;3.90;;;;;;;;;;5117540;28;20026;-84
2023/05/18 14:06:38;;;;;;;7.07;4.03;;;;;;;;;;5117737;28;20448;-84
2023/05/18 14:09:04;;;;;;;8.98;4.40;;;;;;;;;;5117473;28;20024;-84
2023/05/18 14:11:35;;;;;;;3.95;3.53;;;;;;;;;;5117549;28;20110;-84
2023/05/18 14:14:01;;;;;;;5.07;3.80;;;;;;;;;;5116628;28;20102;-84
2023/05/18 14:16:28;;;;;;;5.03;3.90;;;;;;;;;;5117537;28;20262;-84
2023/05/18 14:18:54;;;;;;;4.78;4.13;;;;;;;;;;5116566;28;20430;-85
2023/05/18 14:21:20;;;;;;;4.22;3.53;;;;;;;;;;5117720;28;20313;-83
2023/05/18 14:23:47;;;;;;;5.55;4.00;;;;;;;;;;5117388;28;20023;-84
2023/05/18 14:26:13;;;;;;;8.20;4.47;;;;;;;;;;5117410;28;20059;-83
2023/05/18 14:28:39;;;;;;;10.10;5.10;;;;;;;;;;5117559;28;20016;-84
2023/05/18 14:31:05;;;;;;;5.97;4.43;;;;;;;;;;5116398;28;20313;-84
2023/05/18 14:33:31;;;;;;;8.32;4.50;;;;;;;;;;5117457;28;20314;-85
2023/05/18 14:35:57;;;;;;;4.28;3.60;;;;;;;;;;5117332;28;20405;-82
2023/05/18 14:38:25;;;;;;;4.72;4.07;;;;;;;;;;5117182;28;20485;-83
2023/05/18 14:40:52;;;;;;;7.28;4.78;;;;;;;;;;5117368;28;20146;-85
2023/05/18 14:43:18;;;;;;;4.15;3.75;;;;;;;;;;5117440;28;20028;-83
2023/05/18 14:45:44;;;;;;;5.35;3.55;;;;;;;;;;5117367;28;20031;-83
2023/05/18 14:48:11;;;;;;;4.05;3.63;;;;;;;;;;5115691;28;20036;-83